Time;durP1;ratioP1;P1;durP2;ratioP2;P2;SDS_P1;SDS_P2;PMS_P1;PMS_P2;Temp;Humidity;BMP_temperature;BMP_pressure;BME280_temperature;BME280_humidity;BME280_pressure;Samples;Min_cycle;Max_cycle;Signal;HPM_P1;HPM_P2
2022/04/14 00:00:28;;;;;;;;;;;15.70;56.20;;;;;;5101349;28;19927;-67
2022/04/14 00:02:54;;;;;;;;;;;15.70;56.20;;;;;;5101672;28;20227;-67
2022/04/14 00:05:19;;;;;;;;;;;15.70;56.20;;;;;;5101362;28;19970;-66
2022/04/14 00:07:45;;;;;;;;;;;15.70;56.20;;;;;;5101292;28;19900;-67
2022/04/14 00:10:11;;;;;;;;;;;15.70;56.20;;;;;;5101318;28;19900;-67
2022/04/14 00:12:37;;;;;;;;;;;15.70;56.20;;;;;;5101207;28;19983;-66
2022/04/14 00:15:04;;;;;;;;;;;15.70;56.20;;;;;;5101178;28;19908;-68
2022/04/14 00:17:32;;;;;;;;;;;15.70;56.20;;;;;;5101212;28;19927;-67
2022/04/14 00:19:58;;;;;;;;;;;15.70;56.20;;;;;;5100995;28;19943;-67
2022/04/14 00:22:23;;;;;;;;;;;15.70;56.20;;;;;;5101054;28;19973;-68
2022/04/14 00:24:49;;;;;;;;;;;15.70;56.10;;;;;;5101087;28;19924;-67
2022/04/14 00:27:17;;;;;;;;;;;15.70;56.20;;;;;;5100862;28;19900;-67
2022/04/14 00:29:42;;;;;;;;;;;15.70;56.20;;;;;;5100971;28;19915;-67
2022/04/14 00:32:08;;;;;;;;;;;15.60;56.10;;;;;;5100858;28;19908;-68
2022/04/14 00:34:33;;;;;;;;;;;15.70;56.10;;;;;;5100795;28;19915;-66
2022/04/14 00:36:59;;;;;;;;;;;15.70;56.10;;;;;;5101078;28;19915;-68
2022/04/14 00:39:24;;;;;;;;;;;15.70;56.10;;;;;;5100677;28;19907;-68
2022/04/14 00:41:50;;;;;;;;;;;15.70;56.10;;;;;;5100701;28;20240;-67
2022/04/14 00:44:15;;;;;;;;;;;15.70;56.10;;;;;;5100678;28;19911;-67
2022/04/14 00:46:41;;;;;;;;;;;15.60;56.10;;;;;;5100705;28;20217;-67
2022/04/14 00:49:06;;;;;;;;;;;15.60;56.10;;;;;;5100412;28;20242;-67
2022/04/14 00:51:32;;;;;;;;;;;15.60;56.10;;;;;;5100509;28;19943;-66
2022/04/14 00:53:58;;;;;;;;;;;15.60;56.10;;;;;;5100377;28;19924;-67
2022/04/14 00:56:23;;;;;;;;;;;15.60;56.10;;;;;;5100484;28;19915;-67
2022/04/14 00:58:49;;;;;;;;;;;15.60;56.10;;;;;;5100454;28;19908;-67
2022/04/14 01:01:15;;;;;;;;;;;15.60;56.10;;;;;;5100305;28;19943;-67
2022/04/14 01:03:42;;;;;;;;;;;15.60;56.00;;;;;;5100433;28;19907;-67
2022/04/14 01:06:09;;;;;;;;;;;15.60;56.00;;;;;;5100297;28;19914;-67
2022/04/14 01:08:35;;;;;;;;;;;15.60;56.00;;;;;;5100315;28;19907;-67
2022/04/14 01:11:01;;;;;;;;;;;15.60;55.90;;;;;;5100321;28;19956;-67
2022/04/14 01:13:26;;;;;;;;;;;15.60;55.90;;;;;;5100136;28;19915;-68
2022/04/14 01:15:56;;;;;;;;;;;15.60;56.00;;;;;;5100197;28;19992;-67
2022/04/14 01:18:21;;;;;;;;;;;15.60;55.90;;;;;;5100204;28;19912;-67
2022/04/14 01:20:47;;;;;;;;;;;15.60;56.00;;;;;;5100044;28;19911;-67
2022/04/14 01:23:14;;;;;;;;;;;15.60;56.00;;;;;;5100146;28;19918;-67
2022/04/14 01:25:39;;;;;;;;;;;15.60;56.00;;;;;;5100138;28;19930;-67
2022/04/14 01:28:05;;;;;;;;;;;15.60;55.90;;;;;;5100043;28;20188;-67
2022/04/14 01:30:31;;;;;;;;;;;15.60;55.90;;;;;;5100079;28;19900;-67
2022/04/14 01:32:57;;;;;;;;;;;15.60;55.90;;;;;;5099962;28;19911;-67
2022/04/14 01:35:23;;;;;;;;;;;15.60;55.90;;;;;;5100032;28;19908;-67
2022/04/14 01:37:49;;;;;;;;;;;15.60;55.90;;;;;;5099963;28;20429;-67
2022/04/14 01:40:14;;;;;;;;;;;15.60;55.90;;;;;;5099857;28;19908;-67
2022/04/14 01:42:40;;;;;;;;;;;15.60;55.90;;;;;;5099982;28;19900;-67
2022/04/14 01:45:10;;;;;;;;;;;15.60;55.90;;;;;;5099885;28;19900;-66
2022/04/14 01:47:40;;;;;;;;;;;15.60;55.90;;;;;;5099878;28;19900;-67
2022/04/14 01:50:07;;;;;;;;;;;15.60;55.90;;;;;;5099836;28;19907;-67
2022/04/14 01:52:33;;;;;;;;;;;15.60;55.90;;;;;;5099859;28;19908;-67
2022/04/14 01:54:58;;;;;;;;;;;15.60;55.90;;;;;;5099691;28;19919;-68
2022/04/14 01:57:24;;;;;;;;;;;15.60;55.90;;;;;;5099752;28;19912;-67
2022/04/14 01:59:50;;;;;;;;;;;15.60;55.90;;;;;;5099759;28;19900;-66
2022/04/14 02:02:15;;;;;;;;;;;15.60;55.90;;;;;;5101980;28;19904;-66
2022/04/14 02:04:42;;;;;;;;;;;15.60;55.90;;;;;;5103757;28;19911;-67
2022/04/14 02:07:09;;;;;;;;;;;15.60;55.90;;;;;;5103632;28;19908;-68
2022/04/14 02:09:35;;;;;;;;;;;15.60;55.90;;;;;;5103610;28;20195;-67
2022/04/14 02:12:01;;;;;;;;;;;15.60;55.90;;;;;;5103656;28;19900;-67
2022/04/14 02:14:26;;;;;;;;;;;15.60;55.90;;;;;;5103430;28;19950;-67
2022/04/14 02:16:53;;;;;;;;;;;15.60;55.90;;;;;;5103522;28;19908;-67
2022/04/14 02:19:18;;;;;;;;;;;15.60;55.90;;;;;;5103441;28;19917;-67
2022/04/14 02:21:44;;;;;;;;;;;15.60;55.90;;;;;;5103193;28;19919;-68
2022/04/14 02:24:09;;;;;;;;;;;15.60;55.90;;;;;;5103378;28;19904;-67
2022/04/14 02:26:35;;;;;;;;;;;15.60;55.90;;;;;;5103318;28;19913;-67
2022/04/14 02:29:01;;;;;;;;;;;15.60;55.80;;;;;;5103319;28;19979;-68
2022/04/14 02:31:26;;;;;;;;;;;15.60;55.90;;;;;;5103157;28;19908;-67
2022/04/14 02:33:52;;;;;;;;;;;15.60;56.10;;;;;;5103187;28;20192;-67
2022/04/14 02:36:17;;;;;;;;;;;15.50;55.80;;;;;;5103077;28;19908;-68
2022/04/14 02:38:45;;;;;;;;;;;15.50;55.90;;;;;;5101765;28;20332;-67
2022/04/14 02:41:10;;;;;;;;;;;15.50;55.80;;;;;;5103042;28;19970;-67
2022/04/14 02:43:37;;;;;;;;;;;15.60;55.90;;;;;;5102932;28;19961;-67
2022/04/14 02:46:04;;;;;;;;;;;15.50;55.90;;;;;;5102989;28;19948;-68
2022/04/14 02:48:30;;;;;;;;;;;15.60;55.80;;;;;;5102894;28;20096;-66
2022/04/14 02:50:56;;;;;;;;;;;15.50;55.80;;;;;;5102825;28;19899;-67
2022/04/14 02:53:21;;;;;;;;;;;15.50;55.80;;;;;;5102681;28;20146;-67
2022/04/14 02:55:47;;;;;;;;;;;15.50;55.80;;;;;;5102722;28;20211;-67
2022/04/14 02:58:13;;;;;;;;;;;15.50;55.90;;;;;;5102745;28;19939;-68
2022/04/14 03:00:39;;;;;;;;;;;15.50;55.80;;;;;;5102590;28;19912;-67
2022/04/14 03:03:04;;;;;;;;;;;15.50;55.80;;;;;;5102574;28;20215;-67
2022/04/14 03:05:30;;;;;;;;;;;15.50;55.70;;;;;;5102625;28;20415;-67
2022/04/14 03:07:55;;;;;;;;;;;15.50;55.80;;;;;;5102454;28;19907;-67
2022/04/14 03:10:21;;;;;;;;;;;15.50;55.80;;;;;;5102543;28;19907;-67
2022/04/14 03:12:46;;;;;;;;;;;15.50;55.80;;;;;;5102169;28;19912;-67
2022/04/14 03:15:15;;;;;;;;;;;15.50;55.80;;;;;;5102351;28;19908;-67
2022/04/14 03:17:41;;;;;;;;;;;15.50;55.80;;;;;;5102384;28;19900;-67
2022/04/14 03:20:07;;;;;;;;;;;15.50;55.80;;;;;;5102174;28;19983;-67
2022/04/14 03:22:33;;;;;;;;;;;15.50;55.80;;;;;;5102198;28;19942;-67
2022/04/14 03:25:06;;;;;;;;;;;15.50;55.80;;;;;;5102256;28;19908;-67
2022/04/14 03:27:32;;;;;;;;;;;15.50;55.80;;;;;;5102120;28;19915;-67
2022/04/14 03:29:57;;;;;;;;;;;15.50;55.80;;;;;;5102038;28;20103;-65
2022/04/14 03:32:24;;;;;;;;;;;15.50;55.80;;;;;;5102065;28;20274;-68
2022/04/14 03:34:50;;;;;;;;;;;15.50;55.70;;;;;;5102109;28;20006;-66
2022/04/14 03:37:16;;;;;;;;;;;15.50;55.70;;;;;;5101939;28;19907;-67
2022/04/14 03:39:41;;;;;;;;;;;15.50;55.60;;;;;;5101965;28;19908;-67
2022/04/14 03:42:07;;;;;;;;;;;15.50;55.60;;;;;;5101735;28;19912;-67
2022/04/14 03:44:32;;;;;;;;;;;15.50;55.70;;;;;;5101870;28;19919;-66
2022/04/14 03:46:58;;;;;;;;;;;15.50;55.70;;;;;;5101679;28;19908;-67
2022/04/14 03:49:24;;;;;;;;;;;15.50;55.70;;;;;;5101704;28;19915;-67
2022/04/14 03:51:49;;;;;;;;;;;15.50;55.70;;;;;;5101290;28;19983;-67
2022/04/14 03:54:15;;;;;;;;;;;15.50;55.70;;;;;;5101492;28;19961;-67
2022/04/14 03:56:40;;;;;;;;;;;15.50;55.70;;;;;;5101525;28;19906;-66
2022/04/14 03:59:06;;;;;;;;;;;15.50;55.70;;;;;;5101577;28;19986;-67
2022/04/14 04:01:32;;;;;;;;;;;15.50;55.70;;;;;;5101455;28;20148;-67
2022/04/14 04:03:57;;;;;;;;;;;15.40;55.70;;;;;;5101299;28;19930;-67
2022/04/14 04:06:23;;;;;;;;;;;15.50;55.80;;;;;;5101407;28;20257;-67
2022/04/14 04:08:48;;;;;;;;;;;15.40;55.70;;;;;;5101336;28;20240;-67
2022/04/14 04:11:14;;;;;;;;;;;15.40;55.80;;;;;;5101273;28;20104;-67
2022/04/14 04:13:41;;;;;;;;;;;15.40;55.70;;;;;;5101263;28;19900;-67
2022/04/14 04:16:06;;;;;;;;;;;15.40;55.70;;;;;;5101198;28;19967;-66
2022/04/14 04:18:33;;;;;;;;;;;15.40;55.70;;;;;;5101279;28;19908;-67
2022/04/14 04:20:59;;;;;;;;;;;15.40;55.70;;;;;;5101070;28;20411;-66
2022/04/14 04:23:24;;;;;;;;;;;15.40;55.60;;;;;;5100842;28;19912;-67
2022/04/14 04:25:50;;;;;;;;;;;15.40;55.60;;;;;;5100584;28;20356;-67
2022/04/14 04:28:15;;;;;;;;;;;15.40;55.60;;;;;;5099610;28;19907;-67
2022/04/14 04:30:40;;;;;;;;;;;15.40;55.60;;;;;;5100996;28;19986;-68
2022/04/14 04:33:06;;;;;;;;;;;15.40;55.70;;;;;;5100879;28;19986;-66
2022/04/14 04:35:32;;;;;;;;;;;15.40;55.60;;;;;;5100908;28;19912;-67
2022/04/14 04:37:57;;;;;;;;;;;15.40;55.70;;;;;;5100823;28;20235;-67
2022/04/14 04:40:23;;;;;;;;;;;15.40;55.60;;;;;;5099400;28;19912;-67
2022/04/14 04:42:48;;;;;;;;;;;15.40;55.60;;;;;;5100716;28;19978;-67
2022/04/14 04:45:14;;;;;;;;;;;15.40;55.60;;;;;;5100724;28;19908;-68
2022/04/14 04:47:40;;;;;;;;;;;15.40;55.60;;;;;;5100669;28;20188;-67
2022/04/14 04:50:07;;;;;;;;;;;15.40;55.60;;;;;;5100583;28;19907;-67
2022/04/14 04:52:36;;;;;;;;;;;15.40;55.60;;;;;;5100686;28;20111;-66
2022/04/14 04:55:02;;;;;;;;;;;15.40;55.60;;;;;;5099154;28;19919;-67
2022/04/14 04:57:27;;;;;;;;;;;15.40;55.60;;;;;;5100498;28;19912;-67
2022/04/14 04:59:53;;;;;;;;;;;15.40;55.60;;;;;;5100449;28;20353;-67
2022/04/14 05:02:18;;;;;;;;;;;15.40;55.60;;;;;;5100389;28;19977;-66
2022/04/14 05:04:44;;;;;;;;;;;15.40;55.50;;;;;;5100780;28;19912;-67
2022/04/14 05:07:09;;;;;;;;;;;15.40;55.50;;;;;;5100425;28;20184;-67
2022/04/14 05:09:35;;;;;;;;;;;15.40;55.60;;;;;;5100244;28;19967;-68
2022/04/14 05:12:00;;;;;;;;;;;15.40;55.60;;;;;;5099004;28;19906;-66
2022/04/14 05:14:26;;;;;;;;;;;15.40;55.60;;;;;;5100322;28;19900;-67
2022/04/14 05:16:52;;;;;;;;;;;15.40;55.60;;;;;;5100337;28;19908;-67
2022/04/14 05:19:17;;;;;;;;;;;15.40;55.60;;;;;;5098884;28;20192;-67
2022/04/14 05:21:43;;;;;;;;;;;15.40;55.50;;;;;;5100208;28;20172;-67
2022/04/14 05:24:08;;;;;;;;;;;15.40;55.50;;;;;;5100163;28;20128;-67
2022/04/14 05:26:34;;;;;;;;;;;15.40;55.50;;;;;;5100272;28;19967;-68
2022/04/14 05:28:59;;;;;;;;;;;15.40;55.40;;;;;;5100146;28;19971;-67
2022/04/14 05:31:25;;;;;;;;;;;15.40;55.40;;;;;;5100094;28;19904;-67
2022/04/14 05:33:51;;;;;;;;;;;15.40;55.50;;;;;;5098842;28;19907;-66
2022/04/14 05:36:16;;;;;;;;;;;15.40;55.50;;;;;;5102608;28;19912;-66
2022/04/14 05:38:42;;;;;;;;;;;15.40;55.50;;;;;;5104357;28;19930;-67
2022/04/14 05:41:08;;;;;;;;;;;15.40;55.50;;;;;;5104099;28;19916;-67
2022/04/14 05:43:33;;;;;;;;;;;15.40;55.30;;;;;;5104135;28;19942;-67
2022/04/14 05:45:59;;;;;;;;;;;15.40;55.40;;;;;;5104151;28;19908;-68
2022/04/14 05:48:25;;;;;;;;;;;15.40;55.40;;;;;;5104094;28;19899;-66
2022/04/14 05:50:51;;;;;;;;;;;15.40;55.40;;;;;;5104144;28;20225;-67
2022/04/14 05:53:17;;;;;;;;;;;15.40;55.30;;;;;;5103889;28;20312;-67
2022/04/14 05:55:42;;;;;;;;;;;15.40;55.30;;;;;;5104153;28;19976;-67
2022/04/14 05:58:08;;;;;;;;;;;15.40;55.30;;;;;;5103909;28;19908;-68
2022/04/14 06:00:34;;;;;;;;;;;15.40;55.30;;;;;;5103875;28;19975;-67
2022/04/14 06:03:00;;;;;;;;;;;15.40;55.30;;;;;;5103790;28;19908;-66
2022/04/14 06:05:27;;;;;;;;;;;15.50;55.30;;;;;;5103745;28;19900;-67
2022/04/14 06:07:52;;;;;;;;;;;15.50;55.20;;;;;;5103846;28;19908;-68
2022/04/14 06:10:18;;;;;;;;;;;15.50;55.20;;;;;;5103791;28;19984;-66
2022/04/14 06:12:44;;;;;;;;;;;15.50;55.20;;;;;;5103745;28;19973;-68
2022/04/14 06:15:10;;;;;;;;;;;15.50;55.30;;;;;;5103741;28;19931;-67
2022/04/14 06:17:35;;;;;;;;;;;15.40;55.20;;;;;;5103551;28;19907;-68
2022/04/14 06:20:03;;;;;;;;;;;15.40;55.40;;;;;;5103610;28;20222;-67
2022/04/14 06:22:29;;;;;;;;;;;15.40;55.20;;;;;;5103500;28;20197;-67
2022/04/14 06:24:56;;;;;;;;;;;15.40;55.20;;;;;;5103521;28;19908;-67
2022/04/14 06:27:22;;;;;;;;;;;15.40;55.20;;;;;;5103461;28;20131;-67
2022/04/14 06:29:47;;;;;;;;;;;15.40;55.30;;;;;;5103319;28;20211;-66
2022/04/14 06:32:13;;;;;;;;;;;15.40;55.30;;;;;;5103393;28;20141;-67
2022/04/14 06:34:38;;;;;;;;;;;15.50;55.30;;;;;;5103271;28;20195;-67
2022/04/14 06:37:04;;;;;;;;;;;15.40;55.30;;;;;;5103280;28;19908;-67
2022/04/14 06:39:30;;;;;;;;;;;15.40;55.20;;;;;;5103207;28;19907;-67
2022/04/14 06:41:55;;;;;;;;;;;15.40;55.30;;;;;;5103056;28;19946;-67
2022/04/14 06:44:21;;;;;;;;;;;15.40;55.30;;;;;;5103210;28;19900;-67
2022/04/14 06:46:46;;;;;;;;;;;15.40;55.30;;;;;;5102429;28;19915;-67
2022/04/14 06:49:15;;;;;;;;;;;15.40;55.40;;;;;;5103037;28;19958;-67
2022/04/14 06:51:41;;;;;;;;;;;15.40;55.30;;;;;;5103061;28;19950;-67
2022/04/14 06:54:06;;;;;;;;;;;15.40;55.40;;;;;;5102757;28;20108;-67
2022/04/14 06:56:32;;;;;;;;;;;15.40;55.40;;;;;;5102893;28;19900;-67
2022/04/14 06:58:58;;;;;;;;;;;15.40;55.40;;;;;;5103368;28;19907;-67
2022/04/14 07:01:23;;;;;;;;;;;15.40;55.40;;;;;;5102759;28;19939;-67
2022/04/14 07:03:49;;;;;;;;;;;15.40;55.40;;;;;;5102756;28;19908;-67
2022/04/14 07:06:14;;;;;;;;;;;15.40;55.40;;;;;;5102629;28;20184;-68
2022/04/14 07:08:40;;;;;;;;;;;15.40;55.50;;;;;;5102761;28;19907;-67
2022/04/14 07:11:06;;;;;;;;;;;15.40;55.50;;;;;;5102594;28;19899;-67
2022/04/14 07:13:31;;;;;;;;;;;15.40;55.50;;;;;;5102652;28;19949;-67
2022/04/14 07:15:59;;;;;;;;;;;15.40;55.50;;;;;;5102457;28;19908;-67
2022/04/14 07:18:26;;;;;;;;;;;15.40;55.60;;;;;;5102371;28;19907;-67
2022/04/14 07:20:51;;;;;;;;;;;15.40;55.50;;;;;;5102430;28;19919;-67
2022/04/14 07:23:17;;;;;;;;;;;15.40;55.50;;;;;;5102347;28;19947;-67
2022/04/14 07:25:42;;;;;;;;;;;15.40;55.50;;;;;;5102275;28;19908;-66
2022/04/14 07:28:08;;;;;;;;;;;15.40;55.40;;;;;;5102271;28;20139;-67
2022/04/14 07:30:34;;;;;;;;;;;15.40;56.20;;;;;;5102273;28;19908;-67
2022/04/14 07:33:00;;;;;;;;;;;15.40;55.60;;;;;;5102247;28;19985;-66
2022/04/14 07:35:26;;;;;;;;;;;15.40;55.50;;;;;;5100772;28;19900;-67
2022/04/14 07:37:52;;;;;;;;;;;15.40;55.50;;;;;;5102123;28;19940;-67
2022/04/14 07:40:18;;;;;;;;;;;15.40;55.50;;;;;;5102006;28;19908;-67
2022/04/14 07:42:45;;;;;;;;;;;15.40;55.50;;;;;;5101964;28;19994;-66
2022/04/14 07:45:11;;;;;;;;;;;15.40;55.40;;;;;;5102045;28;19911;-67
2022/04/14 07:47:41;;;;;;;;;;;15.40;55.50;;;;;;5101876;28;20222;-67
2022/04/14 07:50:08;;;;;;;;;;;15.40;55.50;;;;;;5101852;28;19900;-67
2022/04/14 07:52:53;;;;;;;;;;;15.40;55.50;;;;;;5101826;28;19908;-67
2022/04/14 07:55:20;;;;;;;;;;;15.40;55.50;;;;;;5102000;28;20263;-67
2022/04/14 07:57:45;;;;;;;;;;;15.40;55.40;;;;;;5100452;28;19907;-67
2022/04/14 08:00:11;;;;;;;;;;;15.40;55.50;;;;;;5100633;28;19931;-68
2022/04/14 08:02:45;;;;;;;;;;;15.40;55.50;;;;;;5101538;28;19943;-67
2022/04/14 08:05:10;;;;;;;;;;;15.40;55.50;;;;;;5101672;28;19950;-66
2022/04/14 08:07:36;;;;;;;;;;;15.40;55.50;;;;;;5101472;28;19908;-67
2022/04/14 08:10:01;;;;;;;;;;;15.40;55.70;;;;;;5101503;28;20188;-67
2022/04/14 08:12:29;;;;;;;;;;;15.40;55.60;;;;;;5101392;28;19914;-66
2022/04/14 08:14:54;;;;;;;;;;;15.40;55.60;;;;;;5101394;28;19908;-67
2022/04/14 08:17:21;;;;;;;;;;;15.40;55.60;;;;;;5101310;28;19967;-67
2022/04/14 08:19:46;;;;;;;;;;;15.40;55.50;;;;;;5101296;28;19908;-67
2022/04/14 08:22:12;;;;;;;;;;;15.50;55.50;;;;;;5101232;28;19919;-67
2022/04/14 08:24:38;;;;;;;;;;;15.40;55.60;;;;;;5101262;28;19953;-66
2022/04/14 08:27:04;;;;;;;;;;;15.40;55.50;;;;;;5099888;28;19911;-68
2022/04/14 08:29:30;;;;;;;;;;;15.50;55.50;;;;;;5101202;28;19907;-68
2022/04/14 08:31:56;;;;;;;;;;;15.50;55.60;;;;;;5100995;28;19900;-67
2022/04/14 08:34:22;;;;;;;;;;;15.40;55.50;;;;;;5101064;28;19915;-67
2022/04/14 08:36:47;;;;;;;;;;;15.50;55.60;;;;;;5100947;28;19936;-67
2022/04/14 08:39:13;;;;;;;;;;;15.50;55.50;;;;;;5100962;28;20103;-67
2022/04/14 08:41:40;;;;;;;;;;;15.50;55.50;;;;;;5100852;28;19912;-67
2022/04/14 08:44:09;;;;;;;;;;;15.50;55.50;;;;;;5100788;28;20096;-67
2022/04/14 08:46:36;;;;;;;;;;;15.50;55.40;;;;;;5100766;28;19900;-67
2022/04/14 08:49:02;;;;;;;;;;;15.50;55.50;;;;;;5100875;28;19914;-68
2022/04/14 08:51:28;;;;;;;;;;;15.50;55.50;;;;;;5100769;28;19900;-66
2022/04/14 08:53:54;;;;;;;;;;;15.50;55.50;;;;;;5100515;28;20225;-67
2022/04/14 08:56:21;;;;;;;;;;;15.50;55.50;;;;;;5100617;28;19900;-66
2022/04/14 08:58:47;;;;;;;;;;;15.50;55.50;;;;;;5100590;28;20192;-67
2022/04/14 09:01:13;;;;;;;;;;;15.60;55.50;;;;;;5100477;28;19904;-66
2022/04/14 09:03:39;;;;;;;;;;;15.60;55.50;;;;;;5100539;28;19939;-66
2022/04/14 09:06:04;;;;;;;;;;;15.60;55.50;;;;;;5100524;28;19908;-67
2022/04/14 09:08:30;;;;;;;;;;;15.60;55.50;;;;;;5100520;28;19918;-67
2022/04/14 09:10:55;;;;;;;;;;;15.60;55.50;;;;;;5099991;28;20001;-67
2022/04/14 09:13:21;;;;;;;;;;;15.60;55.50;;;;;;5100429;28;19900;-66
2022/04/14 09:15:47;;;;;;;;;;;15.60;55.50;;;;;;5100236;28;19919;-67
2022/04/14 09:18:13;;;;;;;;;;;15.60;55.50;;;;;;5100378;28;19912;-66
2022/04/14 09:20:41;;;;;;;;;;;15.60;55.50;;;;;;5100305;28;20429;-67
2022/04/14 09:23:23;;;;;;;;;;;15.60;55.50;;;;;;5100262;28;19908;-67
2022/04/14 09:25:50;;;;;;;;;;;15.60;55.60;;;;;;5100194;28;20116;-67
2022/04/14 09:28:17;;;;;;;;;;;15.60;55.60;;;;;;5100178;28;19907;-67
2022/04/14 09:30:58;;;;;;;;;;;15.60;55.70;;;;;;5100228;28;19931;-67
2022/04/14 09:33:23;;;;;;;;;;;15.60;55.60;;;;;;5100166;28;20155;-67
2022/04/14 09:36:05;;;;;;;;;;;15.60;55.60;;;;;;5100081;28;20192;-67
2022/04/14 09:38:48;;;;;;;;;;;15.60;55.60;;;;;;5100187;28;19907;-66
2022/04/14 09:41:32;;;;;;;;;;;15.60;55.60;;;;;;5100079;28;19975;-67
2022/04/14 09:43:59;;;;;;;;;;;15.60;55.60;;;;;;5100053;28;19900;-67
2022/04/14 09:46:25;;;;;;;;;;;15.60;56.30;;;;;;5100044;28;19953;-66
2022/04/14 09:49:03;;;;;;;;;;;15.60;55.60;;;;;;5100086;28;19900;-67
2022/04/14 09:51:28;;;;;;;;;;;15.60;55.60;;;;;;5100031;28;19911;-66
2022/04/14 09:54:03;;;;;;;;;;;15.60;55.60;;;;;;5099798;28;20357;-67
2022/04/14 09:56:39;;;;;;;;;;;15.60;55.60;;;;;;5099982;28;19912;-67
2022/04/14 09:59:05;;;;;;;;;;;15.60;55.70;;;;;;5099915;28;19908;-68
2022/04/14 10:01:31;;;;;;;;;;;15.60;55.60;;;;;;5099887;28;20096;-67
2022/04/14 10:03:56;;;;;;;;;;;15.70;55.70;;;;;;5100184;28;20103;-66
2022/04/14 10:06:22;;;;;;;;;;;15.70;55.30;;;;;;5099840;28;19907;-67
2022/04/14 10:08:48;;;;;;;;;;;15.60;55.60;;;;;;5099844;28;19950;-66
2022/04/14 10:11:14;;;;;;;;;;;15.70;55.70;;;;;;5099792;28;19908;-66
2022/04/14 10:13:40;;;;;;;;;;;15.70;55.70;;;;;;5100078;28;19900;-66
2022/04/14 10:16:07;;;;;;;;;;;15.70;55.70;;;;;;5099741;28;19900;-68
2022/04/14 10:18:33;;;;;;;;;;;15.70;55.70;;;;;;5099737;28;19900;-66
2022/04/14 10:20:58;;;;;;;;;;;15.70;55.70;;;;;;5099629;28;19912;-67
2022/04/14 10:23:26;;;;;;;;;;;15.70;55.70;;;;;;5102191;28;19915;-67
2022/04/14 10:25:53;;;;;;;;;;;15.70;55.70;;;;;;5103472;28;20203;-67
2022/04/14 10:28:20;;;;;;;;;;;15.70;55.70;;;;;;5102109;28;19907;-67
2022/04/14 10:30:46;;;;;;;;;;;15.70;56.30;;;;;;5103344;28;19901;-67
2022/04/14 10:33:12;;;;;;;;;;;15.70;55.70;;;;;;5103451;28;19949;-67
2022/04/14 10:35:38;;;;;;;;;;;15.70;55.70;;;;;;5103191;28;19939;-66
2022/04/14 10:38:07;;;;;;;;;;;15.70;55.70;;;;;;5103259;28;19908;-69
2022/04/14 10:40:35;;;;;;;;;;;15.70;55.70;;;;;;5103164;28;19912;-67
2022/04/14 10:43:01;;;;;;;;;;;15.70;55.70;;;;;;5103047;28;19908;-67
2022/04/14 10:45:27;;;;;;;;;;;15.80;55.60;;;;;;5103121;28;20111;-67
2022/04/14 10:47:55;;;;;;;;;;;15.70;55.60;;;;;;5103127;28;19900;-68
2022/04/14 10:50:22;;;;;;;;;;;15.80;55.70;;;;;;5102991;28;19936;-67
2022/04/14 10:53:05;;;;;;;;;;;15.70;55.70;;;;;;5102797;28;19907;-67
2022/04/14 10:55:35;;;;;;;;;;;15.80;55.80;;;;;;5102972;28;19970;-67
2022/04/14 10:58:01;;;;;;;;;;;15.80;55.70;;;;;;5102984;28;19900;-67
2022/04/14 11:00:35;;;;;;;;;;;15.80;55.80;;;;;;5102687;28;19965;-67
2022/04/14 11:03:02;;;;;;;;;;;15.80;55.80;;;;;;5102829;28;20174;-67
2022/04/14 11:05:40;;;;;;;;;;;15.80;55.70;;;;;;5102702;28;20160;-67
2022/04/14 11:08:22;;;;;;;;;;;15.80;55.70;;;;;;5102705;28;19907;-67
2022/04/14 11:10:54;;;;;;;;;;;15.80;55.70;;;;;;5102620;28;19908;-67
2022/04/14 11:13:20;;;;;;;;;;;15.80;55.50;;;;;;5101364;28;19961;-66
2022/04/14 11:15:45;;;;;;;;;;;15.80;55.70;;;;;;5102526;28;19951;-67
2022/04/14 11:18:11;;;;;;;;;;;15.80;55.70;;;;;;5102541;28;19919;-67
2022/04/14 11:20:44;;;;;;;;;;;15.90;55.70;;;;;;5102310;28;19912;-67
2022/04/14 11:23:15;;;;;;;;;;;15.80;55.60;;;;;;5101123;28;19931;-67
2022/04/14 11:25:44;;;;;;;;;;;15.90;55.70;;;;;;5102441;28;19926;-67
2022/04/14 11:28:15;;;;;;;;;;;15.90;55.60;;;;;;5102327;28;19908;-67
2022/04/14 11:30:41;;;;;;;;;;;15.90;55.60;;;;;;5102289;28;20119;-67
2022/04/14 11:33:13;;;;;;;;;;;15.90;55.50;;;;;;5101986;28;19931;-67
2022/04/14 11:35:43;;;;;;;;;;;15.90;55.60;;;;;;5102171;28;19923;-67
2022/04/14 11:38:11;;;;;;;;;;;15.90;55.70;;;;;;5102088;28;19949;-67
2022/04/14 11:40:38;;;;;;;;;;;15.90;55.70;;;;;;5101939;28;19928;-67
2022/04/14 11:43:06;;;;;;;;;;;15.90;55.60;;;;;;5102022;28;19908;-68
2022/04/14 11:45:31;;;;;;;;;;;15.90;55.70;;;;;;5102015;28;19904;-67
2022/04/14 11:48:00;;;;;;;;;;;16.00;55.70;;;;;;5101892;28;19908;-67
2022/04/14 11:50:27;;;;;;;;;;;16.00;55.70;;;;;;5101776;28;19900;-67
2022/04/14 11:52:58;;;;;;;;;;;16.00;55.80;;;;;;5101482;28;19979;-66
2022/04/14 11:55:50;;;;;;;;;;;16.00;55.80;;;;;;5101604;28;19907;-68
2022/04/14 11:58:16;;;;;;;;;;;16.00;55.80;;;;;;5096343;28;19907;-68
2022/04/14 12:00:50;;;;;;;;;;;16.00;55.80;;;;;;5101642;28;19912;-67
2022/04/14 12:03:31;;;;;;;;;;;16.00;55.80;;;;;;5101572;28;19907;-67
2022/04/14 12:06:03;;;;;;;;;;;16.00;55.70;;;;;;5101457;28;19915;-67
2022/04/14 12:08:28;;;;;;;;;;;16.00;55.70;;;;;;5101522;28;20486;-67
2022/04/14 12:10:54;;;;;;;;;;;16.00;55.70;;;;;;5101420;28;19983;-67
2022/04/14 12:13:21;;;;;;;;;;;16.00;55.70;;;;;;5101360;28;20289;-67
2022/04/14 12:15:59;;;;;;;;;;;16.00;55.70;;;;;;5101296;28;19907;-67
2022/04/14 12:18:25;;;;;;;;;;;16.10;55.70;;;;;;5101246;28;20149;-67
2022/04/14 12:20:50;;;;;;;;;;;16.10;55.80;;;;;;5101159;28;19903;-68
2022/04/14 12:23:16;;;;;;;;;;;16.10;55.80;;;;;;5101092;28;19915;-67
2022/04/14 12:25:42;;;;;;;;;;;16.00;55.80;;;;;;5101190;28;19942;-66
2022/04/14 12:28:07;;;;;;;;;;;16.10;55.80;;;;;;5101064;28;19942;-66
2022/04/14 12:30:34;;;;;;;;;;;16.10;55.80;;;;;;5101057;28;19931;-67
2022/04/14 12:33:03;;;;;;;;;;;16.10;55.80;;;;;;5101010;28;19908;-68
2022/04/14 12:35:39;;;;;;;;;;;16.10;55.80;;;;;;5101013;28;20442;-67
2022/04/14 12:38:15;;;;;;;;;;;16.10;55.80;;;;;;5100902;28;19907;-67
2022/04/14 12:40:56;;;;;;;;;;;16.10;55.80;;;;;;5100855;28;19911;-66
2022/04/14 12:43:23;;;;;;;;;;;16.10;55.80;;;;;;5100854;28;20196;-67
2022/04/14 12:45:48;;;;;;;;;;;16.10;55.70;;;;;;5100209;28;20204;-67
2022/04/14 12:48:24;;;;;;;;;;;16.10;55.80;;;;;;5100724;28;19907;-67
2022/04/14 12:50:57;;;;;;;;;;;16.20;55.80;;;;;;5100718;28;19907;-67
2022/04/14 12:53:23;;;;;;;;;;;16.20;55.80;;;;;;5100499;28;19912;-67
2022/04/14 12:55:49;;;;;;;;;;;16.20;55.70;;;;;;5100596;28;19908;-67
2022/04/14 12:58:15;;;;;;;;;;;16.20;55.80;;;;;;5100496;28;19943;-67
2022/04/14 13:00:41;;;;;;;;;;;16.20;55.80;;;;;;5100499;28;20025;-67
2022/04/14 13:03:13;;;;;;;;;;;16.20;55.80;;;;;;5100453;28;19914;-67
2022/04/14 13:05:40;;;;;;;;;;;16.20;55.80;;;;;;5100472;28;19908;-67
2022/04/14 13:08:06;;;;;;;;;;;16.20;55.70;;;;;;5100359;28;20346;-67
2022/04/14 13:10:38;;;;;;;;;;;16.30;55.70;;;;;;5099095;28;19915;-67
2022/04/14 13:13:04;;;;;;;;;;;16.30;55.70;;;;;;5100308;28;20179;-67
2022/04/14 13:15:30;;;;;;;;;;;16.30;55.70;;;;;;5100339;28;19908;-67
2022/04/14 13:17:56;;;;;;;;;;;16.30;55.70;;;;;;5100262;28;19967;-67
2022/04/14 13:20:34;;;;;;;;;;;16.30;55.60;;;;;;5100191;28;19914;-68
2022/04/14 13:23:00;;;;;;;;;;;16.30;55.60;;;;;;5100190;28;19922;-67
2022/04/14 13:25:25;;;;;;;;;;;16.40;55.60;;;;;;5100095;28;19900;-68
2022/04/14 13:27:51;;;;;;;;;;;16.40;55.60;;;;;;5100171;28;19954;-66
2022/04/14 13:30:21;;;;;;;;;;;16.40;55.50;;;;;;5100050;28;19949;-67
2022/04/14 13:32:47;;;;;;;;;;;16.40;55.50;;;;;;5099990;28;19915;-67
2022/04/14 13:35:13;;;;;;;;;;;16.40;55.50;;;;;;5100130;28;20179;-67
2022/04/14 13:37:39;;;;;;;;;;;16.50;55.50;;;;;;5100044;28;19908;-67
2022/04/14 13:40:05;;;;;;;;;;;16.50;55.50;;;;;;5100035;28;19900;-67
2022/04/14 13:42:31;;;;;;;;;;;16.40;55.40;;;;;;5099929;28;19932;-67
2022/04/14 13:44:57;;;;;;;;;;;16.50;55.40;;;;;;5099969;28;19908;-67
2022/04/14 13:47:22;;;;;;;;;;;16.50;55.40;;;;;;5099980;28;19903;-67
2022/04/14 13:49:48;;;;;;;;;;;16.50;55.50;;;;;;5099956;28;19943;-67
2022/04/14 13:52:15;;;;;;;;;;;16.50;55.60;;;;;;5098654;28;20273;-67
2022/04/14 13:54:40;;;;;;;;;;;16.40;55.70;;;;;;5098479;28;20108;-66
2022/04/14 13:57:06;;;;;;;;;;;16.40;55.80;;;;;;5100298;28;19978;-67
2022/04/14 13:59:32;;;;;;;;;;;16.40;56.00;;;;;;5103981;28;19913;-67
2022/04/14 14:01:57;;;;;;;;;;;16.40;56.00;;;;;;5103757;28;19935;-67
2022/04/14 14:04:23;;;;;;;;;;;16.40;55.90;;;;;;5103920;28;19915;-67
2022/04/14 14:06:49;;;;;;;;;;;16.40;55.80;;;;;;5103851;28;19915;-67
2022/04/14 14:09:14;;;;;;;;;;;16.50;55.80;;;;;;5103759;28;20104;-67
2022/04/14 14:11:40;;;;;;;;;;;16.50;55.70;;;;;;5103751;28;20188;-66
2022/04/14 14:14:05;;;;;;;;;;;16.50;55.80;;;;;;5103653;28;19927;-67